sensor_id;sensor_type;location;lat;lon;timestamp;P1;durP1;ratioP1;P2;durP2;ratioP2
66946;SDS011;53853;51.982;5.928;2023-02-03T00:00:47;18.02;;;5.78;;
66946;SDS011;53853;51.982;5.928;2023-02-03T00:03:16;15.95;;;5.45;;
66946;SDS011;53853;51.982;5.928;2023-02-03T00:05:47;14.85;;;4.18;;
66946;SDS011;53853;51.982;5.928;2023-02-03T00:08:17;16.85;;;4.40;;
66946;SDS011;53853;51.982;5.928;2023-02-03T00:10:48;15.10;;;4.60;;
66946;SDS011;53853;51.982;5.928;2023-02-03T00:13:18;13.80;;;3.88;;
66946;SDS011;53853;51.982;5.928;2023-02-03T00:15:53;13.48;;;4.60;;
66946;SDS011;53853;51.982;5.928;2023-02-03T00:18:23;13.68;;;4.40;;
66946;SDS011;53853;51.982;5.928;2023-02-03T00:20:52;17.35;;;4.10;;
66946;SDS011;53853;51.982;5.928;2023-02-03T00:23:22;15.30;;;4.30;;
66946;SDS011;53853;51.982;5.928;2023-02-03T00:25:54;9.90;;;3.38;;
66946;SDS011;53853;51.982;5.928;2023-02-03T00:28:25;15.00;;;4.15;;
66946;SDS011;53853;51.982;5.928;2023-02-03T00:31:00;10.55;;;3.58;;
66946;SDS011;53853;51.982;5.928;2023-02-03T00:33:30;18.20;;;4.75;;
66946;SDS011;53853;51.982;5.928;2023-02-03T00:36:03;9.98;;;3.20;;
66946;SDS011;53853;51.982;5.928;2023-02-03T00:38:33;13.38;;;3.38;;
66946;SDS011;53853;51.982;5.928;2023-02-03T00:41:05;12.60;;;3.38;;
66946;SDS011;53853;51.982;5.928;2023-02-03T00:43:35;18.75;;;5.28;;
66946;SDS011;53853;51.982;5.928;2023-02-03T00:46:07;22.20;;;5.07;;
66946;SDS011;53853;51.982;5.928;2023-02-03T00:48:37;12.93;;;3.72;;
66946;SDS011;53853;51.982;5.928;2023-02-03T00:51:07;12.27;;;3.22;;
66946;SDS011;53853;51.982;5.928;2023-02-03T00:53:37;12.52;;;3.38;;
66946;SDS011;53853;51.982;5.928;2023-02-03T00:56:07;13.52;;;3.95;;
66946;SDS011;53853;51.982;5.928;2023-02-03T00:58:37;11.43;;;3.95;;
66946;SDS011;53853;51.982;5.928;2023-02-03T01:01:10;12.48;;;5.47;;
66946;SDS011;53853;51.982;5.928;2023-02-03T01:03:40;17.00;;;4.72;;
66946;SDS011;53853;51.982;5.928;2023-02-03T01:06:11;10.90;;;4.68;;
66946;SDS011;53853;51.982;5.928;2023-02-03T01:08:43;12.88;;;3.67;;
66946;SDS011;53853;51.982;5.928;2023-02-03T01:11:14;9.35;;;3.30;;
66946;SDS011;53853;51.982;5.928;2023-02-03T01:13:47;12.85;;;3.03;;
66946;SDS011;53853;51.982;5.928;2023-02-03T01:16:21;14.27;;;3.72;;
66946;SDS011;53853;51.982;5.928;2023-02-03T01:18:51;12.77;;;3.55;;
66946;SDS011;53853;51.982;5.928;2023-02-03T01:21:23;11.75;;;4.45;;
66946;SDS011;53853;51.982;5.928;2023-02-03T01:23:55;17.20;;;4.32;;
66946;SDS011;53853;51.982;5.928;2023-02-03T01:26:26;12.43;;;4.43;;
66946;SDS011;53853;51.982;5.928;2023-02-03T01:28:56;13.35;;;3.90;;
66946;SDS011;53853;51.982;5.928;2023-02-03T01:31:30;15.40;;;4.68;;
66946;SDS011;53853;51.982;5.928;2023-02-03T01:34:06;18.45;;;5.32;;
66946;SDS011;53853;51.982;5.928;2023-02-03T01:36:42;12.02;;;3.38;;
66946;SDS011;53853;51.982;5.928;2023-02-03T01:39:12;13.93;;;4.30;;
66946;SDS011;53853;51.982;5.928;2023-02-03T01:41:45;16.98;;;4.40;;
66946;SDS011;53853;51.982;5.928;2023-02-03T01:47:21;10.25;;;3.60;;
66946;SDS011;53853;51.982;5.928;2023-02-03T01:49:58;12.82;;;3.38;;
66946;SDS011;53853;51.982;5.928;2023-02-03T01:52:34;11.00;;;3.53;;
66946;SDS011;53853;51.982;5.928;2023-02-03T01:55:06;13.07;;;5.03;;
66946;SDS011;53853;51.982;5.928;2023-02-03T01:57:40;14.07;;;4.07;;
66946;SDS011;53853;51.982;5.928;2023-02-03T02:00:14;13.80;;;3.55;;
66946;SDS011;53853;51.982;5.928;2023-02-03T02:02:47;12.32;;;3.85;;
66946;SDS011;53853;51.982;5.928;2023-02-03T02:05:20;17.33;;;3.40;;
66946;SDS011;53853;51.982;5.928;2023-02-03T02:07:53;11.65;;;3.67;;
66946;SDS011;53853;51.982;5.928;2023-02-03T02:10:26;14.02;;;3.95;;
66946;SDS011;53853;51.982;5.928;2023-02-03T02:12:58;15.75;;;3.90;;
66946;SDS011;53853;51.982;5.928;2023-02-03T02:15:32;14.75;;;4.05;;
66946;SDS011;53853;51.982;5.928;2023-02-03T02:18:17;8.38;;;3.40;;
66946;SDS011;53853;51.982;5.928;2023-02-03T02:24:16;17.40;;;4.18;;
66946;SDS011;53853;51.982;5.928;2023-02-03T02:27:01;16.42;;;3.47;;
66946;SDS011;53853;51.982;5.928;2023-02-03T02:29:47;14.75;;;3.95;;
66946;SDS011;53853;51.982;5.928;2023-02-03T02:32:53;8.20;;;3.35;;
66946;SDS011;53853;51.982;5.928;2023-02-03T02:35:42;12.75;;;3.20;;
66946;SDS011;53853;51.982;5.928;2023-02-03T02:38:22;12.35;;;4.10;;
66946;SDS011;53853;51.982;5.928;2023-02-03T02:41:09;14.68;;;3.58;;
66946;SDS011;53853;51.982;5.928;2023-02-03T02:43:46;9.63;;;3.30;;
66946;SDS011;53853;51.982;5.928;2023-02-03T02:46:25;11.45;;;4.05;;
66946;SDS011;53853;51.982;5.928;2023-02-03T02:49:03;11.82;;;3.35;;
66946;SDS011;53853;51.982;5.928;2023-02-03T02:51:38;12.80;;;3.70;;
66946;SDS011;53853;51.982;5.928;2023-02-03T02:54:14;16.02;;;4.05;;
66946;SDS011;53853;51.982;5.928;2023-02-03T02:56:47;15.43;;;3.97;;
66946;SDS011;53853;51.982;5.928;2023-02-03T02:59:20;12.55;;;4.15;;
66946;SDS011;53853;51.982;5.928;2023-02-03T03:01:50;12.82;;;3.63;;
66946;SDS011;53853;51.982;5.928;2023-02-03T03:04:24;10.27;;;3.03;;
66946;SDS011;53853;51.982;5.928;2023-02-03T03:06:58;13.18;;;4.50;;
66946;SDS011;53853;51.982;5.928;2023-02-03T03:09:32;12.10;;;3.15;;
66946;SDS011;53853;51.982;5.928;2023-02-03T03:12:06;13.57;;;4.60;;
66946;SDS011;53853;51.982;5.928;2023-02-03T03:14:41;8.95;;;2.80;;
66946;SDS011;53853;51.982;5.928;2023-02-03T03:17:16;8.60;;;2.95;;
66946;SDS011;53853;51.982;5.928;2023-02-03T03:19:56;9.43;;;3.28;;
66946;SDS011;53853;51.982;5.928;2023-02-03T03:22:31;10.98;;;3.50;;
66946;SDS011;53853;51.982;5.928;2023-02-03T03:25:05;12.50;;;3.17;;
66946;SDS011;53853;51.982;5.928;2023-02-03T03:27:41;12.50;;;3.42;;
66946;SDS011;53853;51.982;5.928;2023-02-03T03:30:17;14.60;;;3.42;;
66946;SDS011;53853;51.982;5.928;2023-02-03T03:32:51;10.05;;;2.85;;
66946;SDS011;53853;51.982;5.928;2023-02-03T03:35:26;12.27;;;3.70;;
66946;SDS011;53853;51.982;5.928;2023-02-03T03:38:02;12.77;;;3.45;;
66946;SDS011;53853;51.982;5.928;2023-02-03T03:40:38;10.65;;;2.95;;
66946;SDS011;53853;51.982;5.928;2023-02-03T03:43:13;12.65;;;3.78;;
66946;SDS011;53853;51.982;5.928;2023-02-03T03:45:48;11.85;;;3.60;;
66946;SDS011;53853;51.982;5.928;2023-02-03T03:48:24;8.77;;;3.70;;
66946;SDS011;53853;51.982;5.928;2023-02-03T03:51:03;12.70;;;3.33;;
66946;SDS011;53853;51.982;5.928;2023-02-03T03:53:37;9.50;;;2.95;;
66946;SDS011;53853;51.982;5.928;2023-02-03T03:56:11;12.05;;;3.40;;
66946;SDS011;53853;51.982;5.928;2023-02-03T03:58:47;12.20;;;3.63;;
66946;SDS011;53853;51.982;5.928;2023-02-03T04:01:20;12.87;;;2.90;;
66946;SDS011;53853;51.982;5.928;2023-02-03T04:03:54;7.70;;;3.38;;
66946;SDS011;53853;51.982;5.928;2023-02-03T04:06:29;14.27;;;3.65;;
66946;SDS011;53853;51.982;5.928;2023-02-03T04:08:59;8.48;;;3.22;;
66946;SDS011;53853;51.982;5.928;2023-02-03T04:11:30;11.45;;;4.25;;
66946;SDS011;53853;51.982;5.928;2023-02-03T04:14:12;8.38;;;2.60;;
66946;SDS011;53853;51.982;5.928;2023-02-03T04:16:42;13.55;;;3.60;;
66946;SDS011;53853;51.982;5.928;2023-02-03T04:19:12;13.20;;;3.00;;
66946;SDS011;53853;51.982;5.928;2023-02-03T04:21:44;12.27;;;3.65;;
66946;SDS011;53853;51.982;5.928;2023-02-03T04:24:14;14.57;;;3.58;;
66946;SDS011;53853;51.982;5.928;2023-02-03T04:26:44;13.05;;;3.65;;
66946;SDS011;53853;51.982;5.928;2023-02-03T04:29:14;10.93;;;3.13;;
66946;SDS011;53853;51.982;5.928;2023-02-03T04:31:44;11.75;;;2.95;;
66946;SDS011;53853;51.982;5.928;2023-02-03T04:34:14;15.02;;;3.40;;
66946;SDS011;53853;51.982;5.928;2023-02-03T04:36:46;11.32;;;4.57;;
66946;SDS011;53853;51.982;5.928;2023-02-03T04:39:16;9.05;;;2.83;;
66946;SDS011;53853;51.982;5.928;2023-02-03T04:41:47;19.48;;;4.00;;
66946;SDS011;53853;51.982;5.928;2023-02-03T04:44:17;15.95;;;3.53;;
66946;SDS011;53853;51.982;5.928;2023-02-03T04:46:47;14.27;;;3.88;;
66946;SDS011;53853;51.982;5.928;2023-02-03T04:49:16;12.77;;;3.38;;
66946;SDS011;53853;51.982;5.928;2023-02-03T04:51:49;9.80;;;2.90;;
66946;SDS011;53853;51.982;5.928;2023-02-03T04:54:19;14.93;;;3.95;;
66946;SDS011;53853;51.982;5.928;2023-02-03T04:56:49;15.13;;;4.07;;
66946;SDS011;53853;51.982;5.928;2023-02-03T04:59:19;12.32;;;3.60;;
66946;SDS011;53853;51.982;5.928;2023-02-03T05:01:49;13.38;;;3.10;;
66946;SDS011;53853;51.982;5.928;2023-02-03T05:04:19;9.75;;;2.60;;
66946;SDS011;53853;51.982;5.928;2023-02-03T05:06:51;13.55;;;3.22;;
66946;SDS011;53853;51.982;5.928;2023-02-03T05:09:22;12.57;;;3.17;;
66946;SDS011;53853;51.982;5.928;2023-02-03T05:11:52;12.20;;;2.90;;
66946;SDS011;53853;51.982;5.928;2023-02-03T05:14:22;10.00;;;2.80;;
66946;SDS011;53853;51.982;5.928;2023-02-03T05:16:52;8.77;;;3.22;;
66946;SDS011;53853;51.982;5.928;2023-02-03T05:19:22;12.45;;;3.30;;
66946;SDS011;53853;51.982;5.928;2023-02-03T05:21:54;19.48;;;4.07;;
66946;SDS011;53853;51.982;5.928;2023-02-03T05:24:24;15.73;;;3.60;;
66946;SDS011;53853;51.982;5.928;2023-02-03T05:26:54;17.85;;;3.53;;
66946;SDS011;53853;51.982;5.928;2023-02-03T05:29:24;11.13;;;2.72;;
66946;SDS011;53853;51.982;5.928;2023-02-03T05:31:53;10.45;;;3.65;;
66946;SDS011;53853;51.982;5.928;2023-02-03T05:34:23;11.82;;;3.10;;
66946;SDS011;53853;51.982;5.928;2023-02-03T05:36:56;12.13;;;3.28;;
66946;SDS011;53853;51.982;5.928;2023-02-03T05:39:26;12.23;;;3.90;;
66946;SDS011;53853;51.982;5.928;2023-02-03T05:41:56;11.75;;;3.13;;
66946;SDS011;53853;51.982;5.928;2023-02-03T05:44:24;9.68;;;3.22;;
66946;SDS011;53853;51.982;5.928;2023-02-03T05:46:56;11.32;;;3.13;;
66946;SDS011;53853;51.982;5.928;2023-02-03T05:49:27;15.30;;;3.58;;
66946;SDS011;53853;51.982;5.928;2023-02-03T05:51:59;19.05;;;3.55;;
66946;SDS011;53853;51.982;5.928;2023-02-03T05:54:29;10.07;;;3.22;;
66946;SDS011;53853;51.982;5.928;2023-02-03T05:56:59;12.45;;;3.25;;
66946;SDS011;53853;51.982;5.928;2023-02-03T05:59:29;14.25;;;3.58;;
66946;SDS011;53853;51.982;5.928;2023-02-03T06:01:58;11.88;;;3.83;;
66946;SDS011;53853;51.982;5.928;2023-02-03T06:04:28;13.02;;;3.70;;
66946;SDS011;53853;51.982;5.928;2023-02-03T06:07:01;10.68;;;3.47;;
66946;SDS011;53853;51.982;5.928;2023-02-03T06:09:31;16.65;;;2.85;;
66946;SDS011;53853;51.982;5.928;2023-02-03T06:12:01;13.90;;;3.95;;
66946;SDS011;53853;51.982;5.928;2023-02-03T06:14:31;15.55;;;3.70;;
66946;SDS011;53853;51.982;5.928;2023-02-03T06:17:00;10.88;;;3.78;;
66946;SDS011;53853;51.982;5.928;2023-02-03T06:19:30;11.88;;;3.03;;
66946;SDS011;53853;51.982;5.928;2023-02-03T06:22:03;15.73;;;3.85;;
66946;SDS011;53853;51.982;5.928;2023-02-03T06:24:33;12.27;;;3.92;;
66946;SDS011;53853;51.982;5.928;2023-02-03T06:27:02;10.02;;;3.28;;
66946;SDS011;53853;51.982;5.928;2023-02-03T06:29:32;14.77;;;3.53;;
66946;SDS011;53853;51.982;5.928;2023-02-03T06:32:02;13.55;;;3.47;;
66946;SDS011;53853;51.982;5.928;2023-02-03T06:34:32;10.80;;;3.13;;
66946;SDS011;53853;51.982;5.928;2023-02-03T06:37:05;10.13;;;3.25;;
66946;SDS011;53853;51.982;5.928;2023-02-03T06:39:35;17.50;;;5.38;;
66946;SDS011;53853;51.982;5.928;2023-02-03T06:42:05;19.80;;;3.97;;
66946;SDS011;53853;51.982;5.928;2023-02-03T06:44:34;11.63;;;3.33;;
66946;SDS011;53853;51.982;5.928;2023-02-03T06:47:04;17.77;;;4.00;;
66946;SDS011;53853;51.982;5.928;2023-02-03T06:49:34;13.13;;;3.95;;
66946;SDS011;53853;51.982;5.928;2023-02-03T06:52:07;13.95;;;3.53;;
66946;SDS011;53853;51.982;5.928;2023-02-03T06:54:36;14.55;;;3.28;;
66946;SDS011;53853;51.982;5.928;2023-02-03T06:57:06;16.20;;;5.22;;
66946;SDS011;53853;51.982;5.928;2023-02-03T06:59:37;12.63;;;3.15;;
66946;SDS011;53853;51.982;5.928;2023-02-03T07:02:08;11.05;;;3.78;;
66946;SDS011;53853;51.982;5.928;2023-02-03T07:04:38;11.68;;;3.25;;
66946;SDS011;53853;51.982;5.928;2023-02-03T07:07:12;11.80;;;3.85;;
66946;SDS011;53853;51.982;5.928;2023-02-03T07:09:42;16.95;;;4.53;;
66946;SDS011;53853;51.982;5.928;2023-02-03T07:12:12;9.70;;;3.67;;
66946;SDS011;53853;51.982;5.928;2023-02-03T07:14:42;15.52;;;5.40;;
66946;SDS011;53853;51.982;5.928;2023-02-03T07:17:12;15.75;;;3.95;;
66946;SDS011;53853;51.982;5.928;2023-02-03T07:19:42;11.73;;;3.97;;
66946;SDS011;53853;51.982;5.928;2023-02-03T07:22:14;14.85;;;3.40;;
66946;SDS011;53853;51.982;5.928;2023-02-03T07:24:44;14.43;;;3.45;;
66946;SDS011;53853;51.982;5.928;2023-02-03T07:27:14;13.73;;;3.95;;
66946;SDS011;53853;51.982;5.928;2023-02-03T07:29:45;17.98;;;4.40;;
66946;SDS011;53853;51.982;5.928;2023-02-03T07:32:14;12.15;;;4.00;;
66946;SDS011;53853;51.982;5.928;2023-02-03T07:34:44;14.13;;;3.53;;
66946;SDS011;53853;51.982;5.928;2023-02-03T07:37:17;12.20;;;3.33;;
66946;SDS011;53853;51.982;5.928;2023-02-03T07:39:47;15.82;;;4.00;;
66946;SDS011;53853;51.982;5.928;2023-02-03T07:42:17;8.30;;;3.47;;
66946;SDS011;53853;51.982;5.928;2023-02-03T07:44:49;13.05;;;3.80;;
66946;SDS011;53853;51.982;5.928;2023-02-03T07:47:19;14.32;;;3.88;;
66946;SDS011;53853;51.982;5.928;2023-02-03T07:49:49;13.27;;;4.32;;
66946;SDS011;53853;51.982;5.928;2023-02-03T07:52:21;10.70;;;4.40;;
66946;SDS011;53853;51.982;5.928;2023-02-03T07:54:51;8.63;;;3.90;;
66946;SDS011;53853;51.982;5.928;2023-02-03T07:57:21;16.63;;;4.85;;
66946;SDS011;53853;51.982;5.928;2023-02-03T07:59:51;14.60;;;4.38;;
66946;SDS011;53853;51.982;5.928;2023-02-03T08:02:21;12.77;;;3.67;;
66946;SDS011;53853;51.982;5.928;2023-02-03T08:04:51;17.65;;;3.78;;
66946;SDS011;53853;51.982;5.928;2023-02-03T08:07:25;13.18;;;4.13;;
66946;SDS011;53853;51.982;5.928;2023-02-03T08:09:55;16.75;;;4.93;;
66946;SDS011;53853;51.982;5.928;2023-02-03T08:12:25;11.27;;;4.18;;
66946;SDS011;53853;51.982;5.928;2023-02-03T08:14:54;11.77;;;4.32;;
66946;SDS011;53853;51.982;5.928;2023-02-03T08:17:24;12.15;;;4.28;;
66946;SDS011;53853;51.982;5.928;2023-02-03T08:19:54;10.07;;;3.33;;
66946;SDS011;53853;51.982;5.928;2023-02-03T08:22:27;9.73;;;3.28;;
66946;SDS011;53853;51.982;5.928;2023-02-03T08:24:57;8.93;;;3.53;;
66946;SDS011;53853;51.982;5.928;2023-02-03T08:27:27;13.55;;;4.07;;
66946;SDS011;53853;51.982;5.928;2023-02-03T08:29:58;9.60;;;2.97;;
66946;SDS011;53853;51.982;5.928;2023-02-03T08:32:28;14.50;;;3.38;;
66946;SDS011;53853;51.982;5.928;2023-02-03T08:34:58;14.23;;;4.20;;
66946;SDS011;53853;51.982;5.928;2023-02-03T08:37:31;9.85;;;3.65;;
66946;SDS011;53853;51.982;5.928;2023-02-03T08:40:01;13.38;;;3.08;;
66946;SDS011;53853;51.982;5.928;2023-02-03T08:42:31;12.65;;;4.00;;
66946;SDS011;53853;51.982;5.928;2023-02-03T08:45:01;12.85;;;3.60;;
66946;SDS011;53853;51.982;5.928;2023-02-03T08:47:31;9.00;;;3.47;;
66946;SDS011;53853;51.982;5.928;2023-02-03T08:50:01;18.08;;;3.67;;
66946;SDS011;53853;51.982;5.928;2023-02-03T08:52:35;11.85;;;4.57;;
66946;SDS011;53853;51.982;5.928;2023-02-03T08:55:05;12.20;;;4.57;;
66946;SDS011;53853;51.982;5.928;2023-02-03T08:57:36;11.00;;;3.38;;
66946;SDS011;53853;51.982;5.928;2023-02-03T09:00:08;11.43;;;3.00;;
66946;SDS011;53853;51.982;5.928;2023-02-03T09:02:39;10.32;;;3.35;;
66946;SDS011;53853;51.982;5.928;2023-02-03T09:05:09;11.98;;;3.90;;
66946;SDS011;53853;51.982;5.928;2023-02-03T09:07:43;16.77;;;4.07;;
66946;SDS011;53853;51.982;5.928;2023-02-03T09:10:13;13.38;;;3.25;;
66946;SDS011;53853;51.982;5.928;2023-02-03T09:12:43;13.55;;;3.80;;
66946;SDS011;53853;51.982;5.928;2023-02-03T09:15:13;12.48;;;3.75;;
66946;SDS011;53853;51.982;5.928;2023-02-03T09:17:43;9.20;;;2.85;;
66946;SDS011;53853;51.982;5.928;2023-02-03T09:20:13;8.90;;;2.92;;
66946;SDS011;53853;51.982;5.928;2023-02-03T09:22:46;10.48;;;3.95;;
66946;SDS011;53853;51.982;5.928;2023-02-03T09:25:16;11.55;;;3.35;;
66946;SDS011;53853;51.982;5.928;2023-02-03T09:27:46;12.18;;;3.33;;
66946;SDS011;53853;51.982;5.928;2023-02-03T09:30:16;13.90;;;4.15;;
66946;SDS011;53853;51.982;5.928;2023-02-03T09:32:46;11.38;;;3.60;;
66946;SDS011;53853;51.982;5.928;2023-02-03T09:35:21;9.07;;;2.88;;
66946;SDS011;53853;51.982;5.928;2023-02-03T09:37:54;8.77;;;2.83;;
66946;SDS011;53853;51.982;5.928;2023-02-03T09:40:26;11.32;;;3.08;;
66946;SDS011;53853;51.982;5.928;2023-02-03T09:43:06;7.80;;;3.15;;
66946;SDS011;53853;51.982;5.928;2023-02-03T09:45:42;7.85;;;2.92;;
66946;SDS011;53853;51.982;5.928;2023-02-03T09:48:13;8.52;;;3.13;;
66946;SDS011;53853;51.982;5.928;2023-02-03T09:50:47;9.80;;;3.33;;
66946;SDS011;53853;51.982;5.928;2023-02-03T09:53:23;12.85;;;5.15;;
66946;SDS011;53853;51.982;5.928;2023-02-03T09:56:01;12.48;;;4.00;;
66946;SDS011;53853;51.982;5.928;2023-02-03T09:58:32;11.30;;;3.40;;
66946;SDS011;53853;51.982;5.928;2023-02-03T10:01:02;16.55;;;3.53;;
66946;SDS011;53853;51.982;5.928;2023-02-03T10:03:37;7.60;;;3.28;;
66946;SDS011;53853;51.982;5.928;2023-02-03T10:06:13;7.22;;;2.88;;
66946;SDS011;53853;51.982;5.928;2023-02-03T10:09:04;9.38;;;4.05;;
66946;SDS011;53853;51.982;5.928;2023-02-03T10:11:53;9.57;;;3.08;;
66946;SDS011;53853;51.982;5.928;2023-02-03T10:14:42;10.85;;;2.92;;
66946;SDS011;53853;51.982;5.928;2023-02-03T10:17:23;12.50;;;2.80;;
66946;SDS011;53853;51.982;5.928;2023-02-03T10:20:00;6.07;;;2.45;;
66946;SDS011;53853;51.982;5.928;2023-02-03T10:22:34;7.82;;;3.03;;
66946;SDS011;53853;51.982;5.928;2023-02-03T10:25:16;8.27;;;3.03;;
66946;SDS011;53853;51.982;5.928;2023-02-03T10:27:50;6.97;;;3.25;;
66946;SDS011;53853;51.982;5.928;2023-02-03T10:30:24;10.55;;;3.08;;
66946;SDS011;53853;51.982;5.928;2023-02-03T10:32:56;6.75;;;3.30;;
66946;SDS011;53853;51.982;5.928;2023-02-03T10:35:42;7.97;;;3.00;;
66946;SDS011;53853;51.982;5.928;2023-02-03T10:38:22;11.93;;;2.70;;
66946;SDS011;53853;51.982;5.928;2023-02-03T10:41:05;10.13;;;3.35;;
66946;SDS011;53853;51.982;5.928;2023-02-03T10:43:36;10.37;;;3.10;;
66946;SDS011;53853;51.982;5.928;2023-02-03T10:46:16;8.50;;;2.63;;
66946;SDS011;53853;51.982;5.928;2023-02-03T10:48:48;10.68;;;3.92;;
66946;SDS011;53853;51.982;5.928;2023-02-03T10:51:19;7.05;;;2.38;;
66946;SDS011;53853;51.982;5.928;2023-02-03T10:53:50;11.15;;;3.47;;
66946;SDS011;53853;51.982;5.928;2023-02-03T10:56:24;8.25;;;2.90;;
66946;SDS011;53853;51.982;5.928;2023-02-03T10:58:57;6.30;;;2.35;;
66946;SDS011;53853;51.982;5.928;2023-02-03T11:01:38;10.77;;;3.45;;
66946;SDS011;53853;51.982;5.928;2023-02-03T11:04:21;4.20;;;2.17;;
66946;SDS011;53853;51.982;5.928;2023-02-03T11:06:54;8.27;;;2.40;;
66946;SDS011;53853;51.982;5.928;2023-02-03T11:09:28;6.50;;;2.93;;
66946;SDS011;53853;51.982;5.928;2023-02-03T11:12:09;8.98;;;2.47;;
66946;SDS011;53853;51.982;5.928;2023-02-03T11:14:41;8.55;;;2.80;;
66946;SDS011;53853;51.982;5.928;2023-02-03T11:17:16;10.07;;;3.15;;
66946;SDS011;53853;51.982;5.928;2023-02-03T11:19:48;7.57;;;2.90;;
66946;SDS011;53853;51.982;5.928;2023-02-03T11:22:27;7.07;;;2.47;;
66946;SDS011;53853;51.982;5.928;2023-02-03T11:24:59;5.20;;;2.15;;
66946;SDS011;53853;51.982;5.928;2023-02-03T11:27:35;5.88;;;2.03;;
66946;SDS011;53853;51.982;5.928;2023-02-03T11:30:09;8.18;;;2.30;;
66946;SDS011;53853;51.982;5.928;2023-02-03T11:32:43;6.28;;;2.75;;
66946;SDS011;53853;51.982;5.928;2023-02-03T11:35:16;8.20;;;2.50;;
66946;SDS011;53853;51.982;5.928;2023-02-03T11:37:49;8.57;;;2.20;;
66946;SDS011;53853;51.982;5.928;2023-02-03T11:40:24;10.70;;;3.15;;
66946;SDS011;53853;51.982;5.928;2023-02-03T11:43:02;7.40;;;2.70;;
66946;SDS011;53853;51.982;5.928;2023-02-03T11:45:42;9.23;;;3.50;;
66946;SDS011;53853;51.982;5.928;2023-02-03T11:48:17;7.35;;;2.72;;
66946;SDS011;53853;51.982;5.928;2023-02-03T11:50:56;7.60;;;2.88;;
66946;SDS011;53853;51.982;5.928;2023-02-03T11:53:36;12.10;;;3.45;;
66946;SDS011;53853;51.982;5.928;2023-02-03T11:56:19;9.10;;;2.95;;
66946;SDS011;53853;51.982;5.928;2023-02-03T12:01:55;10.75;;;2.92;;
66946;SDS011;53853;51.982;5.928;2023-02-03T12:04:48;11.32;;;2.92;;
66946;SDS011;53853;51.982;5.928;2023-02-03T12:07:37;11.27;;;2.83;;
66946;SDS011;53853;51.982;5.928;2023-02-03T12:10:26;9.82;;;3.67;;
66946;SDS011;53853;51.982;5.928;2023-02-03T12:13:04;9.35;;;3.13;;
66946;SDS011;53853;51.982;5.928;2023-02-03T12:19:00;6.28;;;2.92;;
66946;SDS011;53853;51.982;5.928;2023-02-03T12:21:42;9.27;;;2.90;;
66946;SDS011;53853;51.982;5.928;2023-02-03T12:24:22;8.63;;;2.75;;
66946;SDS011;53853;51.982;5.928;2023-02-03T12:27:06;9.02;;;3.17;;
66946;SDS011;53853;51.982;5.928;2023-02-03T12:29:44;7.88;;;2.55;;
66946;SDS011;53853;51.982;5.928;2023-02-03T12:32:23;11.23;;;3.00;;
66946;SDS011;53853;51.982;5.928;2023-02-03T12:35:01;11.63;;;3.08;;
66946;SDS011;53853;51.982;5.928;2023-02-03T12:37:42;8.43;;;2.70;;
66946;SDS011;53853;51.982;5.928;2023-02-03T12:40:17;8.68;;;2.60;;
66946;SDS011;53853;51.982;5.928;2023-02-03T12:42:57;7.72;;;3.00;;
66946;SDS011;53853;51.982;5.928;2023-02-03T12:45:36;10.18;;;3.70;;
66946;SDS011;53853;51.982;5.928;2023-02-03T12:48:11;10.43;;;2.78;;
66946;SDS011;53853;51.982;5.928;2023-02-03T12:50:47;8.23;;;3.40;;
66946;SDS011;53853;51.982;5.928;2023-02-03T12:53:20;10.52;;;3.15;;
66946;SDS011;53853;51.982;5.928;2023-02-03T12:55:56;14.82;;;4.47;;
66946;SDS011;53853;51.982;5.928;2023-02-03T12:58:31;13.50;;;3.10;;
66946;SDS011;53853;51.982;5.928;2023-02-03T13:01:07;14.38;;;4.00;;
66946;SDS011;53853;51.982;5.928;2023-02-03T13:03:46;13.75;;;3.00;;
66946;SDS011;53853;51.982;5.928;2023-02-03T13:06:21;15.38;;;3.97;;
66946;SDS011;53853;51.982;5.928;2023-02-03T13:08:57;12.98;;;3.33;;
66946;SDS011;53853;51.982;5.928;2023-02-03T13:11:32;12.05;;;3.90;;
66946;SDS011;53853;51.982;5.928;2023-02-03T13:14:09;16.48;;;3.90;;
66946;SDS011;53853;51.982;5.928;2023-02-03T13:16:46;15.15;;;3.83;;
66946;SDS011;53853;51.982;5.928;2023-02-03T13:19:23;19.67;;;5.72;;
66946;SDS011;53853;51.982;5.928;2023-02-03T13:21:58;10.23;;;3.70;;
66946;SDS011;53853;51.982;5.928;2023-02-03T13:24:27;15.23;;;4.85;;
66946;SDS011;53853;51.982;5.928;2023-02-03T13:27:07;17.00;;;3.40;;
66946;SDS011;53853;51.982;5.928;2023-02-03T13:30:03;19.67;;;4.80;;
66946;SDS011;53853;51.982;5.928;2023-02-03T13:32:59;12.25;;;3.72;;
66946;SDS011;53853;51.982;5.928;2023-02-03T13:35:53;17.23;;;4.20;;
66946;SDS011;53853;51.982;5.928;2023-02-03T13:38:42;17.08;;;4.25;;
66946;SDS011;53853;51.982;5.928;2023-02-03T13:41:28;17.38;;;5.28;;
66946;SDS011;53853;51.982;5.928;2023-02-03T13:44:06;18.25;;;4.22;;
66946;SDS011;53853;51.982;5.928;2023-02-03T13:46:41;15.73;;;4.55;;
66946;SDS011;53853;51.982;5.928;2023-02-03T13:49:17;17.85;;;4.75;;
66946;SDS011;53853;51.982;5.928;2023-02-03T13:51:55;11.48;;;4.00;;
66946;SDS011;53853;51.982;5.928;2023-02-03T13:54:25;13.07;;;5.25;;
66946;SDS011;53853;51.982;5.928;2023-02-03T13:59:38;23.23;;;5.75;;
66946;SDS011;53853;51.982;5.928;2023-02-03T14:04:59;17.05;;;4.70;;
66946;SDS011;53853;51.982;5.928;2023-02-03T14:07:32;18.10;;;5.10;;
66946;SDS011;53853;51.982;5.928;2023-02-03T14:10:04;18.95;;;4.57;;
66946;SDS011;53853;51.982;5.928;2023-02-03T14:12:53;12.82;;;4.65;;
66946;SDS011;53853;51.982;5.928;2023-02-03T14:15:29;18.30;;;5.43;;
66946;SDS011;53853;51.982;5.928;2023-02-03T14:18:05;22.45;;;4.97;;
66946;SDS011;53853;51.982;5.928;2023-02-03T14:23:52;17.23;;;5.28;;
66946;SDS011;53853;51.982;5.928;2023-02-03T14:26:34;15.95;;;5.28;;
66946;SDS011;53853;51.982;5.928;2023-02-03T14:29:10;17.38;;;4.22;;
66946;SDS011;53853;51.982;5.928;2023-02-03T14:31:57;22.98;;;5.35;;
66946;SDS011;53853;51.982;5.928;2023-02-03T14:34:29;19.67;;;5.97;;
66946;SDS011;53853;51.982;5.928;2023-02-03T14:37:09;20.88;;;5.20;;
66946;SDS011;53853;51.982;5.928;2023-02-03T14:40:05;17.98;;;5.13;;
66946;SDS011;53853;51.982;5.928;2023-02-03T14:45:58;21.60;;;7.13;;
66946;SDS011;53853;51.982;5.928;2023-02-03T14:48:48;19.55;;;5.80;;
66946;SDS011;53853;51.982;5.928;2023-02-03T14:51:39;27.65;;;6.20;;
66946;SDS011;53853;51.982;5.928;2023-02-03T14:54:25;29.27;;;6.13;;
66946;SDS011;53853;51.982;5.928;2023-02-03T14:57:16;19.40;;;5.53;;
66946;SDS011;53853;51.982;5.928;2023-02-03T14:59:58;31.55;;;6.38;;
66946;SDS011;53853;51.982;5.928;2023-02-03T15:02:32;22.88;;;5.22;;
66946;SDS011;53853;51.982;5.928;2023-02-03T15:08:03;21.33;;;5.70;;
66946;SDS011;53853;51.982;5.928;2023-02-03T15:10:55;26.67;;;6.13;;
66946;SDS011;53853;51.982;5.928;2023-02-03T15:13:28;24.25;;;5.63;;
66946;SDS011;53853;51.982;5.928;2023-02-03T15:16:00;20.52;;;5.05;;
66946;SDS011;53853;51.982;5.928;2023-02-03T15:18:33;20.90;;;6.32;;
66946;SDS011;53853;51.982;5.928;2023-02-03T15:21:05;23.92;;;6.60;;
66946;SDS011;53853;51.982;5.928;2023-02-03T15:23:42;23.58;;;5.63;;
66946;SDS011;53853;51.982;5.928;2023-02-03T15:26:16;16.25;;;4.53;;
66946;SDS011;53853;51.982;5.928;2023-02-03T15:28:58;26.45;;;5.47;;
66946;SDS011;53853;51.982;5.928;2023-02-03T15:31:30;28.00;;;6.03;;
66946;SDS011;53853;51.982;5.928;2023-02-03T15:34:04;25.67;;;6.20;;
66946;SDS011;53853;51.982;5.928;2023-02-03T15:36:42;26.70;;;6.07;;
66946;SDS011;53853;51.982;5.928;2023-02-03T15:39:20;24.92;;;5.55;;
66946;SDS011;53853;51.982;5.928;2023-02-03T15:41:57;23.27;;;4.93;;
66946;SDS011;53853;51.982;5.928;2023-02-03T15:44:33;23.73;;;5.47;;
66946;SDS011;53853;51.982;5.928;2023-02-03T15:47:15;20.60;;;5.35;;